createdAt,value
2019-05-05T00:02:05.577Z,3.27
2019-05-05T00:05:01.855Z,2.83
2019-05-05T00:07:34.903Z,2.70
2019-05-05T00:10:10.723Z,2.60
2019-05-05T00:13:01.786Z,2.43
2019-05-05T00:15:51.404Z,2.90
2019-05-05T00:18:25.323Z,2.80
2019-05-05T00:20:56.590Z,2.50
2019-05-05T00:23:27.920Z,2.97
2019-05-05T00:25:59.224Z,2.60
2019-05-05T00:28:30.523Z,2.60
2019-05-05T00:31:01.826Z,2.30
2019-05-05T00:33:34.380Z,2.70
2019-05-05T00:36:07.867Z,2.70
2019-05-05T00:38:38.559Z,3.10
2019-05-05T00:41:09.907Z,3.20
2019-05-05T00:43:41.175Z,2.77
2019-05-05T00:46:19.067Z,2.83
2019-05-05T00:48:50.282Z,2.50
2019-05-05T00:51:21.529Z,2.60
2019-05-05T00:53:52.781Z,2.90
2019-05-05T00:56:25.016Z,2.90
2019-05-05T00:59:00.199Z,2.70
2019-05-05T01:01:59.416Z,2.60
2019-05-05T01:04:38.696Z,2.83
2019-05-05T01:07:09.953Z,3.00
2019-05-05T01:09:42.287Z,3.00
2019-05-05T01:12:14.918Z,3.83
2019-05-05T01:14:46.251Z,3.20
2019-05-05T01:17:17.497Z,4.03
2019-05-05T01:20:00.284Z,3.60
2019-05-05T01:22:21.689Z,3.77
2019-05-05T01:24:55.209Z,3.70
2019-05-05T01:27:25.906Z,3.90
2019-05-05T01:29:57.142Z,3.50
2019-05-05T01:32:32.461Z,3.40
2019-05-05T01:35:05.385Z,2.90
2019-05-05T01:37:41.916Z,3.40
2019-05-05T01:40:41.656Z,3.00
2019-05-05T01:43:14.635Z,3.20
2019-05-05T01:45:45.985Z,3.17
2019-05-05T01:48:17.339Z,3.60
2019-05-05T01:50:48.689Z,3.30
2019-05-05T01:53:19.980Z,3.30
2019-05-05T01:55:51.601Z,3.17
2019-05-05T01:58:24.450Z,3.60
2019-05-05T02:00:55.817Z,3.20
2019-05-05T02:03:27.219Z,3.27
2019-05-05T02:05:58.719Z,3.23
2019-05-05T02:08:29.998Z,3.40
2019-05-05T02:11:01.321Z,3.40
2019-05-05T02:13:34.485Z,2.93
2019-05-05T02:16:05.568Z,3.30
2019-05-05T02:18:36.868Z,3.07
2019-05-05T02:21:09.657Z,3.40
2019-05-05T02:23:40.952Z,3.10
2019-05-05T02:26:12.266Z,2.80
2019-05-05T02:28:54.290Z,3.37
2019-05-05T02:31:47.632Z,3.33
2019-05-05T02:34:18.945Z,3.60
2019-05-05T02:36:50.214Z,3.00
2019-05-05T02:39:21.489Z,3.00
2019-05-05T02:41:54.798Z,3.20
2019-05-05T02:44:28.545Z,3.20
2019-05-05T02:47:44.959Z,3.20
2019-05-05T02:50:15.813Z,3.53
2019-05-05T02:52:48.493Z,3.07
2019-05-05T02:55:23.478Z,3.17
2019-05-05T02:57:56.447Z,2.90
2019-05-05T03:00:45.650Z,3.23
2019-05-05T03:03:17.056Z,3.30
2019-05-05T03:05:48.551Z,3.57
2019-05-05T03:08:19.908Z,3.80
2019-05-05T03:10:53.600Z,3.53
2019-05-05T03:13:25.724Z,3.70
2019-05-05T03:16:18.019Z,3.60
2019-05-05T03:18:50.616Z,3.27
2019-05-05T03:21:24.249Z,3.50
2019-05-05T03:23:56.540Z,3.83
2019-05-05T03:26:29.236Z,3.80
2019-05-05T03:29:02.373Z,3.30
2019-05-05T03:31:35.156Z,3.57
2019-05-05T03:34:06.884Z,3.57
2019-05-05T03:36:38.190Z,3.23
2019-05-05T03:39:11.616Z,3.50
2019-05-05T03:41:51.842Z,3.47
2019-05-05T03:44:27.006Z,3.30
2019-05-05T03:46:58.333Z,3.30
2019-05-05T03:49:31.228Z,3.70
2019-05-05T03:52:04.836Z,3.77
2019-05-05T03:54:36.754Z,3.43
2019-05-05T03:57:11.128Z,3.23
2019-05-05T03:59:45.015Z,3.53
2019-05-05T04:02:25.167Z,3.37
2019-05-05T04:04:58.393Z,3.40
2019-05-05T04:07:29.702Z,3.63
2019-05-05T04:10:01.119Z,3.33
2019-05-05T04:12:34.564Z,3.73
2019-05-05T04:15:06.614Z,3.40
2019-05-05T04:17:46.857Z,3.50
2019-05-05T04:20:38.708Z,3.77
2019-05-05T04:23:10.019Z,3.57
2019-05-05T04:25:41.321Z,3.37
2019-05-05T04:28:13.656Z,3.60
2019-05-05T04:30:45.080Z,3.73
2019-05-05T04:33:16.385Z,3.97
2019-05-05T04:35:47.679Z,3.57
2019-05-05T04:38:18.996Z,3.87
2019-05-05T04:40:50.313Z,3.50
2019-05-05T04:43:21.579Z,3.80
2019-05-05T04:45:54.114Z,3.50
2019-05-05T04:48:34.919Z,3.87
2019-05-05T04:51:16.876Z,3.70
2019-05-05T04:54:09.940Z,3.53
2019-05-05T04:56:41.217Z,3.70
2019-05-05T04:59:14.314Z,3.80
2019-05-05T05:01:47.010Z,3.07
2019-05-05T05:04:26.984Z,3.30
2019-05-05T05:06:58.932Z,3.33
2019-05-05T05:09:30.273Z,3.73
2019-05-05T05:12:01.533Z,3.37
2019-05-05T05:14:33.706Z,3.27
2019-05-05T05:17:08.343Z,3.67
2019-05-05T05:19:39.670Z,3.50
2019-05-05T05:22:10.950Z,3.50
2019-05-05T05:24:42.238Z,3.57
2019-05-05T05:27:13.930Z,3.70
2019-05-05T05:29:45.218Z,4.20
2019-05-05T05:32:16.511Z,3.40
2019-05-05T05:34:47.790Z,4.40
2019-05-05T05:37:19.076Z,3.33
2019-05-05T05:39:56.729Z,3.73
2019-05-05T05:42:28.000Z,2.93
2019-05-05T05:45:34.296Z,3.63
2019-05-05T05:48:20.062Z,3.90
2019-05-05T05:50:56.347Z,3.03
2019-05-05T05:53:27.638Z,3.10
2019-05-05T05:55:58.927Z,3.63
2019-05-05T05:58:30.263Z,3.67
2019-05-05T06:01:01.575Z,3.60
2019-05-05T06:03:33.917Z,3.60
2019-05-05T06:06:05.323Z,3.37
2019-05-05T06:08:36.603Z,3.70
2019-05-05T06:11:07.921Z,3.80
2019-05-05T06:13:39.209Z,3.40
2019-05-05T06:16:10.495Z,3.50
2019-05-05T06:18:43.597Z,3.40
2019-05-05T06:21:14.802Z,3.20
2019-05-05T06:23:46.052Z,3.40
2019-05-05T06:26:17.355Z,3.50
2019-05-05T06:28:51.202Z,4.03
2019-05-05T06:31:24.445Z,4.43
2019-05-05T06:33:55.519Z,3.43
2019-05-05T06:36:26.786Z,3.80
2019-05-05T06:38:58.090Z,3.40
2019-05-05T06:41:35.182Z,3.40
2019-05-05T06:44:19.198Z,3.70
2019-05-05T06:47:18.160Z,3.70
2019-05-05T06:49:49.456Z,3.20
2019-05-05T06:52:20.743Z,3.53
2019-05-05T06:54:54.155Z,3.40
2019-05-05T06:57:25.091Z,3.93
2019-05-05T06:59:56.316Z,3.80
2019-05-05T07:02:27.603Z,3.67
2019-05-05T07:04:58.821Z,4.00
2019-05-05T07:07:30.102Z,3.70
2019-05-05T07:10:03.637Z,3.20
2019-05-05T07:12:34.779Z,4.13
2019-05-05T07:15:06.263Z,3.90
2019-05-05T07:17:37.576Z,4.30
2019-05-05T07:20:09.228Z,4.33
2019-05-05T07:22:40.540Z,3.90
2019-05-05T07:25:13.828Z,3.53
2019-05-05T07:27:45.145Z,4.10
2019-05-05T07:30:16.906Z,3.67
2019-05-05T07:32:48.224Z,3.80
2019-05-05T07:35:55.976Z,4.40
2019-05-05T07:38:17.240Z,4.20
2019-05-05T07:40:48.501Z,3.87
2019-05-05T07:43:19.748Z,4.00
2019-05-05T07:45:51.044Z,4.50
2019-05-05T07:48:24.176Z,4.20
2019-05-05T07:51:01.488Z,4.70
2019-05-05T07:53:28.237Z,5.43
2019-05-05T07:55:59.501Z,4.53
2019-05-05T07:58:30.808Z,4.47
2019-05-05T08:01:02.134Z,4.53
2019-05-05T08:03:33.932Z,4.03
2019-05-05T08:06:05.347Z,5.07
2019-05-05T08:08:36.691Z,4.10
2019-05-05T08:11:07.974Z,4.07
2019-05-05T08:13:39.312Z,4.57
2019-05-05T08:16:20.203Z,4.70
2019-05-05T08:19:13.782Z,4.27
2019-05-05T08:21:45.165Z,3.93
2019-05-05T08:24:26.028Z,4.33
2019-05-05T08:27:14.630Z,4.77
2019-05-05T08:29:49.894Z,3.93
2019-05-05T08:32:27.041Z,4.70
2019-05-05T08:35:00.985Z,4.13
2019-05-05T08:37:31.317Z,4.07
2019-05-05T08:40:04.311Z,4.57
2019-05-05T08:42:35.735Z,4.03
2019-05-05T08:45:08.069Z,4.00
2019-05-05T08:47:39.416Z,4.20
2019-05-05T08:50:13.576Z,4.37
2019-05-05T08:52:44.545Z,4.43
2019-05-05T08:55:15.818Z,4.27
2019-05-05T08:57:47.112Z,4.97
2019-05-05T09:00:18.672Z,4.70
2019-05-05T09:02:50.072Z,4.33
2019-05-05T09:05:23.676Z,3.93
2019-05-05T09:07:54.878Z,4.40
2019-05-05T09:10:26.228Z,3.87
2019-05-05T09:12:57.609Z,4.33
2019-05-05T09:15:28.917Z,3.90
2019-05-05T09:18:00.232Z,4.37
2019-05-05T09:20:31.584Z,4.20
2019-05-05T09:23:04.175Z,4.10
2019-05-05T09:25:54.547Z,3.97
2019-05-05T09:28:44.546Z,3.83
2019-05-05T09:31:15.894Z,3.93
2019-05-05T09:33:47.305Z,3.67
2019-05-05T09:36:18.602Z,3.60
2019-05-05T09:38:49.958Z,3.23
2019-05-05T09:41:23.375Z,3.83
2019-05-05T09:43:54.236Z,3.50
2019-05-05T09:46:25.717Z,3.17
2019-05-05T09:48:57.019Z,3.30
2019-05-05T09:51:28.300Z,3.37
2019-05-05T09:54:10.963Z,3.07
2019-05-05T09:56:33.932Z,3.40
2019-05-05T09:59:05.392Z,3.57
2019-05-05T10:01:36.688Z,3.47
2019-05-05T10:04:09.062Z,3.37
2019-05-05T10:06:40.890Z,3.30
2019-05-05T10:09:13.784Z,3.07
2019-05-05T10:11:45.232Z,3.47
2019-05-05T10:14:16.639Z,3.43
2019-05-05T10:16:47.925Z,3.63
2019-05-05T10:19:19.238Z,3.43
2019-05-05T10:21:50.541Z,3.03
2019-05-05T10:24:30.627Z,3.13
2019-05-05T10:26:59.862Z,3.10
2019-05-05T10:29:31.191Z,3.20
2019-05-05T10:32:04.516Z,3.10
2019-05-05T10:34:35.504Z,3.10
2019-05-05T10:37:06.794Z,3.50
2019-05-05T10:39:43.964Z,3.20
2019-05-05T10:42:15.396Z,3.10
2019-05-05T10:44:46.671Z,2.97
2019-05-05T10:47:18.073Z,3.33
2019-05-05T10:49:49.414Z,3.40
2019-05-05T10:52:20.683Z,3.30
2019-05-05T10:54:51.962Z,3.20
2019-05-05T10:57:23.698Z,3.73
2019-05-05T10:59:54.829Z,4.13
2019-05-05T11:02:26.098Z,3.43
2019-05-05T11:04:57.411Z,3.90
2019-05-05T11:07:28.756Z,3.23
2019-05-05T11:10:00.077Z,3.20
2019-05-05T11:12:31.310Z,3.43
2019-05-05T11:15:04.092Z,3.40
2019-05-05T11:17:35.406Z,3.30
2019-05-05T11:20:06.968Z,2.60
2019-05-05T11:22:38.166Z,2.50
2019-05-05T11:25:09.383Z,2.97
2019-05-05T11:27:40.574Z,2.83
2019-05-05T11:30:19.941Z,2.80
2019-05-05T11:33:08.773Z,2.87
2019-05-05T11:36:08.116Z,2.90
2019-05-05T11:38:41.394Z,2.50
2019-05-05T11:41:14.429Z,2.53
2019-05-05T11:43:45.410Z,2.40
2019-05-05T11:46:16.719Z,2.80
2019-05-05T11:48:48.049Z,2.27
2019-05-05T11:51:19.302Z,2.43
2019-05-05T11:53:50.575Z,2.50
2019-05-05T11:56:21.843Z,2.63
2019-05-05T11:58:54.668Z,2.60
2019-05-05T12:01:26.795Z,2.47
2019-05-05T12:03:58.070Z,2.80
2019-05-05T12:06:29.332Z,2.53
2019-05-05T12:09:03.070Z,3.00
2019-05-05T12:11:34.558Z,3.30
2019-05-05T12:14:07.878Z,3.37
2019-05-05T12:16:39.336Z,3.20
2019-05-05T12:19:13.782Z,3.20
2019-05-05T12:21:45.144Z,3.60
2019-05-05T12:24:24.876Z,2.90
2019-05-05T12:27:14.162Z,3.17
2019-05-05T12:29:54.601Z,3.70
2019-05-05T12:32:25.959Z,3.17
2019-05-05T12:34:57.269Z,3.80
2019-05-05T12:37:28.577Z,3.57
2019-05-05T12:40:00.089Z,3.40
2019-05-05T12:42:31.385Z,3.70
2019-05-05T12:45:05.983Z,3.10
2019-05-05T12:47:59.196Z,3.50
2019-05-05T12:50:30.598Z,3.27
2019-05-05T12:53:03.951Z,3.50
2019-05-05T12:55:41.437Z,3.07
2019-05-05T12:58:07.979Z,3.43
2019-05-05T13:00:40.944Z,3.80
2019-05-05T13:03:13.495Z,3.50
2019-05-05T13:05:44.839Z,3.30
2019-05-05T13:08:16.143Z,3.43
2019-05-05T13:10:47.422Z,4.00
2019-05-05T13:13:18.760Z,3.90
2019-05-05T13:15:50.081Z,3.87
2019-05-05T13:18:21.356Z,4.20
2019-05-05T13:21:04.126Z,4.33
2019-05-05T13:24:05.823Z,3.97
2019-05-05T13:26:44.597Z,3.93
2019-05-05T13:29:15.855Z,4.77
2019-05-05T13:31:47.156Z,4.77
2019-05-05T13:34:18.466Z,4.83
2019-05-05T13:36:49.769Z,4.40
2019-05-05T13:39:21.063Z,4.40
2019-05-05T13:41:53.956Z,4.93
2019-05-05T13:44:42.933Z,4.70
2019-05-05T13:47:14.225Z,4.67
2019-05-05T13:49:45.481Z,4.33
2019-05-05T13:52:16.793Z,4.00
2019-05-05T13:54:48.114Z,4.70
2019-05-05T13:57:19.471Z,4.20
2019-05-05T13:59:50.775Z,3.60
2019-05-05T14:02:24.267Z,3.57
2019-05-05T14:04:55.082Z,3.50
2019-05-05T14:07:26.381Z,3.23
2019-05-05T14:09:59.073Z,3.90
2019-05-05T14:12:30.460Z,3.10
2019-05-05T14:15:03.949Z,3.33
2019-05-05T14:17:34.753Z,3.10
2019-05-05T14:20:11.715Z,2.97
2019-05-05T14:22:39.383Z,2.73
2019-05-05T14:25:16.048Z,2.80
2019-05-05T14:27:47.317Z,3.30
2019-05-05T14:30:54.644Z,2.87
2019-05-05T14:33:28.970Z,3.07
2019-05-05T14:36:07.266Z,2.77
2019-05-05T14:38:44.696Z,2.43
2019-05-05T14:41:16.019Z,2.70
2019-05-05T14:43:47.317Z,2.60
2019-05-05T14:46:18.637Z,2.80
2019-05-05T14:48:53.636Z,3.00
2019-05-05T14:51:24.982Z,2.70
2019-05-05T14:53:56.250Z,2.93
2019-05-05T14:56:36.238Z,3.10
2019-05-05T14:59:00.548Z,2.70
2019-05-05T15:01:34.254Z,3.00
2019-05-05T15:04:04.876Z,3.43
2019-05-05T15:06:44.120Z,2.93
2019-05-05T15:09:46.263Z,3.23
2019-05-05T15:12:30.087Z,3.40
2019-05-05T15:15:03.792Z,3.10
2019-05-05T15:17:34.422Z,3.33
2019-05-05T15:20:06.780Z,3.20
2019-05-05T15:22:38.109Z,3.23
2019-05-05T15:25:09.394Z,3.13
2019-05-05T15:27:40.775Z,2.87
2019-05-05T15:30:12.711Z,3.10
2019-05-05T15:32:44.011Z,2.90
2019-05-05T15:35:15.409Z,3.13
2019-05-05T15:37:46.773Z,2.90
2019-05-05T15:40:18.224Z,2.60
2019-05-05T15:42:49.561Z,3.00
2019-05-05T15:45:20.912Z,3.30
2019-05-05T15:47:53.909Z,3.20
2019-05-05T15:50:25.361Z,2.93
2019-05-05T15:52:56.627Z,3.03
2019-05-05T15:55:27.900Z,3.03
2019-05-05T15:57:59.236Z,3.00
2019-05-05T16:00:30.562Z,2.77
2019-05-05T16:03:04.139Z,2.47
2019-05-05T16:05:34.832Z,2.43
2019-05-05T16:08:06.151Z,2.90
2019-05-05T16:10:37.478Z,2.77
2019-05-05T16:13:08.773Z,2.60
2019-05-05T16:16:02.021Z,3.10
2019-05-05T16:19:04.922Z,2.67
2019-05-05T16:21:54.358Z,2.80
2019-05-05T16:24:36.575Z,2.50
2019-05-05T16:27:18.675Z,3.30
2019-05-05T16:29:39.992Z,2.90
2019-05-05T16:32:21.203Z,2.50
2019-05-05T16:34:44.312Z,3.20
2019-05-05T16:37:15.652Z,2.90
2019-05-05T16:39:46.974Z,2.90
2019-05-05T16:42:18.306Z,2.70
2019-05-05T16:44:49.605Z,2.90
2019-05-05T16:47:20.885Z,3.57
2019-05-05T16:49:53.804Z,3.13
2019-05-05T16:52:38.984Z,3.03
2019-05-05T16:55:16.586Z,2.83
2019-05-05T16:57:47.934Z,3.40
2019-05-05T17:00:21.539Z,2.90
2019-05-05T17:02:53.694Z,2.67
2019-05-05T17:05:25.058Z,2.63
2019-05-05T17:07:58.474Z,2.13
2019-05-05T17:10:29.355Z,2.47
2019-05-05T17:13:04.836Z,2.23
2019-05-05T17:15:53.772Z,2.00
2019-05-05T17:18:54.100Z,2.60
2019-05-05T17:21:29.971Z,2.30
2019-05-05T17:24:01.258Z,2.47
2019-05-05T17:26:32.539Z,2.70
2019-05-05T17:29:03.984Z,2.10
2019-05-05T17:31:35.317Z,2.13
2019-05-05T17:34:06.605Z,2.27
2019-05-05T17:36:37.938Z,2.60
2019-05-05T17:39:09.565Z,2.50
2019-05-05T17:41:58.546Z,2.23
2019-05-05T17:44:48.738Z,2.47
2019-05-05T17:47:27.881Z,2.67
2019-05-05T17:50:18.041Z,2.77
2019-05-05T17:52:56.847Z,3.00
2019-05-05T17:55:29.361Z,3.03
2019-05-05T17:58:02.490Z,2.87
2019-05-05T18:00:37.433Z,2.80
2019-05-05T18:03:08.692Z,3.03
2019-05-05T18:05:57.546Z,2.77
2019-05-05T18:08:44.634Z,3.10
2019-05-05T18:11:20.932Z,3.00
2019-05-05T18:13:56.059Z,3.23
2019-05-05T18:16:27.499Z,2.80
2019-05-05T18:18:58.841Z,3.10
2019-05-05T18:21:32.226Z,3.03
2019-05-05T18:24:03.170Z,3.00
2019-05-05T18:26:34.467Z,2.63
2019-05-05T18:29:05.775Z,3.10
2019-05-05T18:31:37.106Z,2.80
2019-05-05T18:34:08.427Z,2.80
2019-05-05T18:36:39.775Z,2.90
2019-05-05T18:39:11.282Z,2.83
2019-05-05T18:41:51.281Z,2.73
2019-05-05T18:44:27.153Z,2.90
2019-05-05T18:47:18.694Z,2.60
2019-05-05T18:49:50.304Z,3.00
2019-05-05T18:52:21.587Z,3.50
2019-05-05T18:54:54.524Z,3.17
2019-05-05T18:57:25.941Z,3.03
2019-05-05T18:59:57.273Z,2.80
2019-05-05T19:02:56.346Z,2.27
2019-05-05T19:05:34.521Z,2.93
2019-05-05T19:08:16.622Z,2.80
2019-05-05T19:10:47.945Z,2.40
2019-05-05T19:13:19.281Z,2.40
2019-05-05T19:15:50.601Z,2.40
2019-05-05T19:18:21.973Z,2.40
2019-05-05T19:20:58.381Z,2.70
2019-05-05T19:23:29.726Z,2.37
2019-05-05T19:26:01.014Z,2.90
2019-05-05T19:28:42.055Z,2.37
2019-05-05T19:31:05.358Z,2.43
2019-05-05T19:33:36.657Z,2.40
2019-05-05T19:36:07.975Z,2.30
2019-05-05T19:38:39.294Z,2.53
2019-05-05T19:41:10.569Z,6.93
2019-05-05T19:43:54.902Z,2.77
2019-05-05T19:46:34.654Z,2.50
2019-05-05T19:49:15.593Z,3.03
2019-05-05T19:51:47.447Z,2.50
2019-05-05T19:54:18.806Z,2.90
2019-05-05T19:56:50.326Z,2.63
2019-05-05T19:59:21.645Z,2.83
2019-05-05T20:01:54.005Z,2.90
2019-05-05T20:04:25.467Z,3.07
2019-05-05T20:06:56.845Z,2.80
2019-05-05T20:09:28.170Z,2.70
2019-05-05T20:11:59.468Z,2.93
2019-05-05T20:14:30.764Z,2.90
2019-05-05T20:17:25.580Z,3.00
2019-05-05T20:19:56.921Z,2.63
2019-05-05T20:22:28.215Z,3.10
2019-05-05T20:24:59.569Z,3.10
2019-05-05T20:27:30.887Z,3.10
2019-05-05T20:30:06.199Z,2.90
2019-05-05T20:32:44.461Z,3.00
2019-05-05T20:35:29.814Z,2.87
2019-05-05T20:38:08.636Z,3.00
2019-05-05T20:40:41.614Z,2.93
2019-05-05T20:43:14.386Z,2.90
2019-05-05T20:45:45.753Z,2.97
2019-05-05T20:48:17.082Z,2.83
2019-05-05T20:50:48.384Z,2.63
2019-05-05T20:53:19.691Z,3.17
2019-05-05T20:55:51.017Z,2.60
2019-05-05T20:58:23.886Z,2.63
2019-05-05T21:00:55.297Z,3.23
2019-05-05T21:03:26.575Z,3.17
2019-05-05T21:05:58.060Z,2.90
2019-05-05T21:08:29.712Z,2.90
2019-05-05T21:11:00.992Z,3.00
2019-05-05T21:13:34.141Z,3.10
2019-05-05T21:16:05.242Z,3.10
2019-05-05T21:18:36.678Z,3.20
2019-05-05T21:21:10.734Z,3.87
2019-05-05T21:23:48.148Z,3.63
2019-05-05T21:26:41.454Z,3.43
2019-05-05T21:29:14.051Z,3.13
2019-05-05T21:31:45.424Z,3.23
2019-05-05T21:34:16.680Z,3.53
2019-05-05T21:36:47.947Z,3.80
2019-05-05T21:39:19.368Z,3.60
2019-05-05T21:41:50.639Z,3.47
2019-05-05T21:44:21.937Z,3.40
2019-05-05T21:46:53.792Z,3.87
2019-05-05T21:49:25.107Z,3.50
2019-05-05T21:52:08.394Z,3.67
2019-05-05T21:54:52.542Z,3.47
2019-05-05T21:57:51.595Z,8.73
2019-05-05T22:00:40.467Z,4.77
2019-05-05T22:03:14.007Z,3.97
2019-05-05T22:05:45.287Z,3.33
2019-05-05T22:08:16.607Z,3.50
2019-05-05T22:10:47.927Z,3.60
2019-05-05T22:13:19.227Z,4.20
2019-05-05T22:15:50.521Z,3.20
2019-05-05T22:18:21.801Z,3.77
2019-05-05T22:20:59.438Z,3.60
2019-05-05T22:23:30.747Z,3.50
2019-05-05T22:26:04.164Z,3.20
2019-05-05T22:28:35.073Z,3.57
2019-05-05T22:31:07.182Z,3.50
2019-05-05T22:33:38.485Z,3.93
2019-05-05T22:36:09.768Z,3.90
2019-05-05T22:38:41.065Z,4.20
2019-05-05T22:41:13.284Z,4.30
2019-05-05T22:43:45.367Z,5.10
2019-05-05T22:46:16.659Z,4.43
2019-05-05T22:48:47.933Z,4.53
2019-05-05T22:51:19.235Z,4.57
2019-05-05T22:53:50.560Z,4.57
2019-05-05T22:56:23.999Z,4.47
2019-05-05T22:58:54.830Z,4.37
2019-05-05T23:01:26.123Z,4.00
2019-05-05T23:04:14.768Z,3.50
2019-05-05T23:06:47.818Z,3.50
2019-05-05T23:09:19.124Z,4.37
2019-05-05T23:11:50.386Z,3.90
2019-05-05T23:14:30.499Z,3.60
2019-05-05T23:17:27.154Z,3.80
2019-05-05T23:20:13.475Z,3.97
2019-05-05T23:23:01.198Z,4.40
2019-05-05T23:25:37.010Z,4.13
2019-05-05T23:28:08.318Z,3.97
2019-05-05T23:30:41.988Z,4.70
2019-05-05T23:33:14.286Z,4.60
2019-05-05T23:35:45.641Z,4.67
2019-05-05T23:38:16.928Z,4.40
2019-05-05T23:40:48.213Z,4.50
2019-05-05T23:43:19.460Z,4.33
2019-05-05T23:45:50.807Z,4.93
2019-05-05T23:48:24.030Z,4.43
2019-05-05T23:50:55.055Z,4.57
2019-05-05T23:53:26.334Z,5.53
2019-05-05T23:55:57.588Z,4.60
2019-05-05T23:58:28.887Z,5.07
